sensor_id;sensor_type;location;lat;lon;timestamp;temperature;humidity
24636;DHT22;12772;49.794;10.024;2022-12-18T00:00:42;-5.30;38.70
24636;DHT22;12772;49.794;10.024;2022-12-18T00:04:44;-5.80;38.10
24636;DHT22;12772;49.794;10.024;2022-12-18T00:08:47;-5.90;38.00
24636;DHT22;12772;49.794;10.024;2022-12-18T00:12:49;-5.40;38.80
24636;DHT22;12772;49.794;10.024;2022-12-18T00:16:51;-5.20;38.50
24636;DHT22;12772;49.794;10.024;2022-12-18T00:20:53;-5.40;38.20
24636;DHT22;12772;49.794;10.024;2022-12-18T00:24:55;-5.60;38.00
24636;DHT22;12772;49.794;10.024;2022-12-18T00:29:11;-5.40;38.40
24636;DHT22;12772;49.794;10.024;2022-12-18T00:33:14;-5.60;38.50
24636;DHT22;12772;49.794;10.024;2022-12-18T00:37:16;-5.40;38.70
24636;DHT22;12772;49.794;10.024;2022-12-18T00:41:18;-5.70;38.30
24636;DHT22;12772;49.794;10.024;2022-12-18T00:45:34;-5.70;38.70
24636;DHT22;12772;49.794;10.024;2022-12-18T00:49:36;-5.50;38.70
24636;DHT22;12772;49.794;10.024;2022-12-18T00:53:38;-5.70;38.60
24636;DHT22;12772;49.794;10.024;2022-12-18T00:57:41;-5.60;38.50
24636;DHT22;12772;49.794;10.024;2022-12-18T01:01:44;-6.10;38.10
24636;DHT22;12772;49.794;10.024;2022-12-18T01:05:47;-5.50;38.70
24636;DHT22;12772;49.794;10.024;2022-12-18T01:09:49;-5.60;38.50
24636;DHT22;12772;49.794;10.024;2022-12-18T01:13:52;-5.40;38.60
24636;DHT22;12772;49.794;10.024;2022-12-18T01:17:55;-5.80;38.30
24636;DHT22;12772;49.794;10.024;2022-12-18T01:21:57;-5.90;38.00
24636;DHT22;12772;49.794;10.024;2022-12-18T01:26:07;-5.90;37.80
24636;DHT22;12772;49.794;10.024;2022-12-18T01:30:10;-5.40;38.80
24636;DHT22;12772;49.794;10.024;2022-12-18T01:34:12;-5.50;38.70
24636;DHT22;12772;49.794;10.024;2022-12-18T01:38:14;-6.00;37.80
24636;DHT22;12772;49.794;10.024;2022-12-18T01:42:17;-5.60;38.40
24636;DHT22;12772;49.794;10.024;2022-12-18T01:46:21;-5.40;38.50
24636;DHT22;12772;49.794;10.024;2022-12-18T01:50:31;-5.70;38.60
24636;DHT22;12772;49.794;10.024;2022-12-18T01:54:34;-6.10;38.30
24636;DHT22;12772;49.794;10.024;2022-12-18T01:58:42;-5.60;38.70
24636;DHT22;12772;49.794;10.024;2022-12-18T02:02:46;-5.60;38.90
24636;DHT22;12772;49.794;10.024;2022-12-18T02:06:59;-5.60;38.70
24636;DHT22;12772;49.794;10.024;2022-12-18T02:11:22;-5.60;39.20
24636;DHT22;12772;49.794;10.024;2022-12-18T02:15:38;-5.50;38.60
24636;DHT22;12772;49.794;10.024;2022-12-18T02:20:14;-5.70;38.60
24636;DHT22;12772;49.794;10.024;2022-12-18T02:24:40;-5.80;38.80
24636;DHT22;12772;49.794;10.024;2022-12-18T02:29:01;-5.50;38.60
24636;DHT22;12772;49.794;10.024;2022-12-18T02:33:06;-5.70;38.30
24636;DHT22;12772;49.794;10.024;2022-12-18T02:37:13;-5.60;38.50
24636;DHT22;12772;49.794;10.024;2022-12-18T02:41:16;-5.50;38.60
24636;DHT22;12772;49.794;10.024;2022-12-18T02:45:20;-5.60;38.70
24636;DHT22;12772;49.794;10.024;2022-12-18T02:54:01;-5.60;38.80
24636;DHT22;12772;49.794;10.024;2022-12-18T03:03:03;-5.70;38.20
24636;DHT22;12772;49.794;10.024;2022-12-18T03:07:11;-5.80;38.00
24636;DHT22;12772;49.794;10.024;2022-12-18T03:11:17;-5.80;38.50
24636;DHT22;12772;49.794;10.024;2022-12-18T03:15:47;-5.60;38.50
24636;DHT22;12772;49.794;10.024;2022-12-18T03:19:51;-5.90;38.20
24636;DHT22;12772;49.794;10.024;2022-12-18T03:23:54;-5.80;38.00
24636;DHT22;12772;49.794;10.024;2022-12-18T03:27:59;-5.90;38.30
24636;DHT22;12772;49.794;10.024;2022-12-18T03:32:09;-5.80;38.10
24636;DHT22;12772;49.794;10.024;2022-12-18T03:36:12;-5.90;38.30
24636;DHT22;12772;49.794;10.024;2022-12-18T03:40:14;-6.00;38.00
24636;DHT22;12772;49.794;10.024;2022-12-18T03:44:21;-6.00;38.10
24636;DHT22;12772;49.794;10.024;2022-12-18T03:48:31;-5.90;38.30
24636;DHT22;12772;49.794;10.024;2022-12-18T03:52:49;-6.20;38.50
24636;DHT22;12772;49.794;10.024;2022-12-18T03:56:58;-6.40;38.50
24636;DHT22;12772;49.794;10.024;2022-12-18T04:01:03;-6.00;38.40
24636;DHT22;12772;49.794;10.024;2022-12-18T04:05:08;-6.00;39.10
24636;DHT22;12772;49.794;10.024;2022-12-18T04:09:12;-6.50;38.90
24636;DHT22;12772;49.794;10.024;2022-12-18T04:13:27;-6.10;39.10
24636;DHT22;12772;49.794;10.024;2022-12-18T04:17:30;-6.30;39.40
24636;DHT22;12772;49.794;10.024;2022-12-18T04:21:32;-6.00;39.10
24636;DHT22;12772;49.794;10.024;2022-12-18T04:25:34;-6.00;39.60
24636;DHT22;12772;49.794;10.024;2022-12-18T04:29:36;-6.20;39.50
24636;DHT22;12772;49.794;10.024;2022-12-18T04:33:38;-6.40;38.40
24636;DHT22;12772;49.794;10.024;2022-12-18T04:37:40;-6.20;38.40
24636;DHT22;12772;49.794;10.024;2022-12-18T04:41:42;-6.20;38.30
24636;DHT22;12772;49.794;10.024;2022-12-18T04:45:44;-6.50;38.00
24636;DHT22;12772;49.794;10.024;2022-12-18T04:49:46;-6.20;38.40
24636;DHT22;12772;49.794;10.024;2022-12-18T04:53:48;-6.60;38.00
24636;DHT22;12772;49.794;10.024;2022-12-18T04:57:51;-6.50;38.30
24636;DHT22;12772;49.794;10.024;2022-12-18T05:01:53;-6.10;38.60
24636;DHT22;12772;49.794;10.024;2022-12-18T05:05:55;-6.20;38.20
24636;DHT22;12772;49.794;10.024;2022-12-18T05:09:57;-6.60;38.00
24636;DHT22;12772;49.794;10.024;2022-12-18T05:13:59;-6.20;37.90
24636;DHT22;12772;49.794;10.024;2022-12-18T05:18:03;-6.20;38.10
24636;DHT22;12772;49.794;10.024;2022-12-18T05:22:06;-6.40;38.20
24636;DHT22;12772;49.794;10.024;2022-12-18T05:26:16;-6.40;38.30
24636;DHT22;12772;49.794;10.024;2022-12-18T05:30:18;-6.30;37.90
24636;DHT22;12772;49.794;10.024;2022-12-18T05:34:21;-6.40;38.10
24636;DHT22;12772;49.794;10.024;2022-12-18T05:38:24;-6.50;38.20
24636;DHT22;12772;49.794;10.024;2022-12-18T05:42:26;-7.00;37.50
24636;DHT22;12772;49.794;10.024;2022-12-18T05:46:28;-6.70;38.00
24636;DHT22;12772;49.794;10.024;2022-12-18T05:50:34;-6.90;38.20
24636;DHT22;12772;49.794;10.024;2022-12-18T05:54:36;-6.40;39.30
24636;DHT22;12772;49.794;10.024;2022-12-18T05:58:38;-6.40;40.10
24636;DHT22;12772;49.794;10.024;2022-12-18T06:02:40;-6.70;40.60
24636;DHT22;12772;49.794;10.024;2022-12-18T06:06:42;-7.00;40.40
24636;DHT22;12772;49.794;10.024;2022-12-18T06:10:50;-6.90;40.50
24636;DHT22;12772;49.794;10.024;2022-12-18T06:14:52;-6.90;42.40
24636;DHT22;12772;49.794;10.024;2022-12-18T06:19:01;-6.50;44.00
24636;DHT22;12772;49.794;10.024;2022-12-18T06:23:03;-6.80;45.00
24636;DHT22;12772;49.794;10.024;2022-12-18T06:27:05;-6.90;45.40
24636;DHT22;12772;49.794;10.024;2022-12-18T06:31:08;-6.60;46.50
24636;DHT22;12772;49.794;10.024;2022-12-18T06:35:10;-6.20;47.50
24636;DHT22;12772;49.794;10.024;2022-12-18T06:39:12;-6.20;47.60
24636;DHT22;12772;49.794;10.024;2022-12-18T06:43:14;-6.20;47.70
24636;DHT22;12772;49.794;10.024;2022-12-18T06:47:16;-5.70;48.20
24636;DHT22;12772;49.794;10.024;2022-12-18T06:51:20;-5.60;48.30
24636;DHT22;12772;49.794;10.024;2022-12-18T06:55:22;-5.60;48.20
24636;DHT22;12772;49.794;10.024;2022-12-18T06:59:24;-5.50;47.50
24636;DHT22;12772;49.794;10.024;2022-12-18T07:03:26;-5.50;47.30
24636;DHT22;12772;49.794;10.024;2022-12-18T07:07:28;-5.30;47.10
24636;DHT22;12772;49.794;10.024;2022-12-18T07:11:32;-5.30;46.80
24636;DHT22;12772;49.794;10.024;2022-12-18T07:15:34;-5.70;46.30
24636;DHT22;12772;49.794;10.024;2022-12-18T07:19:36;-5.30;46.60
24636;DHT22;12772;49.794;10.024;2022-12-18T07:23:38;-5.30;46.50
24636;DHT22;12772;49.794;10.024;2022-12-18T07:27:41;-5.10;46.80
24636;DHT22;12772;49.794;10.024;2022-12-18T07:31:43;-5.10;46.30
24636;DHT22;12772;49.794;10.024;2022-12-18T07:35:48;-5.40;46.20
24636;DHT22;12772;49.794;10.024;2022-12-18T07:39:50;-4.90;46.80
24636;DHT22;12772;49.794;10.024;2022-12-18T07:43:52;-5.00;45.90
24636;DHT22;12772;49.794;10.024;2022-12-18T07:47:54;-5.40;45.30
24636;DHT22;12772;49.794;10.024;2022-12-18T07:52:00;-4.90;45.70
24636;DHT22;12772;49.794;10.024;2022-12-18T07:56:10;-4.80;46.00
24636;DHT22;12772;49.794;10.024;2022-12-18T08:00:13;-4.80;46.00
24636;DHT22;12772;49.794;10.024;2022-12-18T08:04:15;-4.90;46.10
24636;DHT22;12772;49.794;10.024;2022-12-18T08:08:17;-4.80;46.20
24636;DHT22;12772;49.794;10.024;2022-12-18T08:12:19;-5.10;45.80
24636;DHT22;12772;49.794;10.024;2022-12-18T08:16:22;-4.60;46.40
24636;DHT22;12772;49.794;10.024;2022-12-18T08:20:24;-4.50;46.90
24636;DHT22;12772;49.794;10.024;2022-12-18T08:24:26;-4.80;46.40
24636;DHT22;12772;49.794;10.024;2022-12-18T08:28:28;-4.60;46.70
24636;DHT22;12772;49.794;10.024;2022-12-18T08:32:30;-4.90;46.50
24636;DHT22;12772;49.794;10.024;2022-12-18T08:36:33;-4.80;46.60
24636;DHT22;12772;49.794;10.024;2022-12-18T08:40:35;-4.00;47.40
24636;DHT22;12772;49.794;10.024;2022-12-18T08:44:37;-4.40;47.30
24636;DHT22;12772;49.794;10.024;2022-12-18T08:48:39;-3.90;48.20
24636;DHT22;12772;49.794;10.024;2022-12-18T08:52:41;-4.00;48.40
24636;DHT22;12772;49.794;10.024;2022-12-18T08:56:43;-3.70;49.20
24636;DHT22;12772;49.794;10.024;2022-12-18T09:00:45;-4.40;49.20
24636;DHT22;12772;49.794;10.024;2022-12-18T09:04:47;-3.70;50.20
24636;DHT22;12772;49.794;10.024;2022-12-18T09:08:50;-4.00;49.90
24636;DHT22;12772;49.794;10.024;2022-12-18T09:12:52;-3.90;50.40
24636;DHT22;12772;49.794;10.024;2022-12-18T09:16:54;-3.50;51.00
24636;DHT22;12772;49.794;10.024;2022-12-18T09:20:56;-3.90;50.40
24636;DHT22;12772;49.794;10.024;2022-12-18T09:24:58;-3.90;50.60
24636;DHT22;12772;49.794;10.024;2022-12-18T09:29:00;-3.80;50.80
24636;DHT22;12772;49.794;10.024;2022-12-18T09:33:03;-3.40;51.80
24636;DHT22;12772;49.794;10.024;2022-12-18T09:37:05;-3.40;51.30
24636;DHT22;12772;49.794;10.024;2022-12-18T09:41:46;-3.30;51.20
24636;DHT22;12772;49.794;10.024;2022-12-18T09:46:11;-3.00;52.50
24636;DHT22;12772;49.794;10.024;2022-12-18T09:54:56;-3.20;52.40
24636;DHT22;12772;49.794;10.024;2022-12-18T09:59:02;-3.00;52.50
24636;DHT22;12772;49.794;10.024;2022-12-18T10:03:12;-3.10;51.70
24636;DHT22;12772;49.794;10.024;2022-12-18T10:20:47;-2.90;53.00
24636;DHT22;12772;49.794;10.024;2022-12-18T10:25:21;-2.80;52.70
24636;DHT22;12772;49.794;10.024;2022-12-18T10:29:25;-2.60;53.10
24636;DHT22;12772;49.794;10.024;2022-12-18T10:33:30;-2.50;53.10
24636;DHT22;12772;49.794;10.024;2022-12-18T10:37:32;-2.50;52.70
24636;DHT22;12772;49.794;10.024;2022-12-18T10:41:34;-2.50;52.90
24636;DHT22;12772;49.794;10.024;2022-12-18T10:45:36;-2.90;52.70
24636;DHT22;12772;49.794;10.024;2022-12-18T10:49:42;-2.10;53.70
24636;DHT22;12772;49.794;10.024;2022-12-18T10:53:59;-2.40;53.30
24636;DHT22;12772;49.794;10.024;2022-12-18T10:58:26;-2.70;52.90
24636;DHT22;12772;49.794;10.024;2022-12-18T11:02:37;-2.30;53.60
24636;DHT22;12772;49.794;10.024;2022-12-18T11:06:53;-2.10;53.90
24636;DHT22;12772;49.794;10.024;2022-12-18T11:10:56;-2.00;54.00
24636;DHT22;12772;49.794;10.024;2022-12-18T11:15:00;-2.50;53.30
24636;DHT22;12772;49.794;10.024;2022-12-18T11:23:37;-1.50;54.00
24636;DHT22;12772;49.794;10.024;2022-12-18T11:27:56;-1.50;53.90
24636;DHT22;12772;49.794;10.024;2022-12-18T11:36:28;-1.70;52.80
24636;DHT22;12772;49.794;10.024;2022-12-18T11:40:36;-1.30;53.60
24636;DHT22;12772;49.794;10.024;2022-12-18T11:44:59;-1.80;52.40
24636;DHT22;12772;49.794;10.024;2022-12-18T11:49:10;-1.20;52.90
24636;DHT22;12772;49.794;10.024;2022-12-18T11:53:14;-1.20;53.10
24636;DHT22;12772;49.794;10.024;2022-12-18T11:57:26;-1.30;52.70
24636;DHT22;12772;49.794;10.024;2022-12-18T12:05:54;-1.20;52.50
24636;DHT22;12772;49.794;10.024;2022-12-18T12:10:08;-0.90;52.30
24636;DHT22;12772;49.794;10.024;2022-12-18T12:18:49;-1.10;51.80
24636;DHT22;12772;49.794;10.024;2022-12-18T12:36:07;-0.80;51.70
24636;DHT22;12772;49.794;10.024;2022-12-18T12:40:21;-0.60;51.60
24636;DHT22;12772;49.794;10.024;2022-12-18T12:44:49;-0.70;51.80
24636;DHT22;12772;49.794;10.024;2022-12-18T12:49:00;-1.10;50.70
24636;DHT22;12772;49.794;10.024;2022-12-18T12:53:07;-1.10;50.90
24636;DHT22;12772;49.794;10.024;2022-12-18T12:57:22;-0.90;51.10
24636;DHT22;12772;49.794;10.024;2022-12-18T13:01:41;-0.50;51.00
24636;DHT22;12772;49.794;10.024;2022-12-18T13:05:53;-0.30;51.50
24636;DHT22;12772;49.794;10.024;2022-12-18T13:14:34;-0.50;50.50
24636;DHT22;12772;49.794;10.024;2022-12-18T13:18:37;-0.20;51.10
24636;DHT22;12772;49.794;10.024;2022-12-18T13:22:57;-0.30;50.30
24636;DHT22;12772;49.794;10.024;2022-12-18T13:26:59;-0.70;49.90
24636;DHT22;12772;49.794;10.024;2022-12-18T13:31:02;-0.30;50.10
24636;DHT22;12772;49.794;10.024;2022-12-18T13:35:37;-0.70;49.50
24636;DHT22;12772;49.794;10.024;2022-12-18T13:39:40;-0.20;50.50
24636;DHT22;12772;49.794;10.024;2022-12-18T13:43:45;0.00;49.90
24636;DHT22;12772;49.794;10.024;2022-12-18T13:47:48;-0.10;50.10
24636;DHT22;12772;49.794;10.024;2022-12-18T13:51:54;-0.10;49.80
24636;DHT22;12772;49.794;10.024;2022-12-18T13:55:57;-0.10;49.50
24636;DHT22;12772;49.794;10.024;2022-12-18T14:08:32;-0.10;49.40
24636;DHT22;12772;49.794;10.024;2022-12-18T14:12:35;-0.10;49.20
24636;DHT22;12772;49.794;10.024;2022-12-18T14:16:55;-0.50;49.40
24636;DHT22;12772;49.794;10.024;2022-12-18T14:21:00;0.20;49.90
24636;DHT22;12772;49.794;10.024;2022-12-18T14:25:15;0.00;49.80
24636;DHT22;12772;49.794;10.024;2022-12-18T14:29:28;-0.10;49.40
24636;DHT22;12772;49.794;10.024;2022-12-18T14:33:30;-0.10;49.20
24636;DHT22;12772;49.794;10.024;2022-12-18T14:37:32;-0.20;49.90
24636;DHT22;12772;49.794;10.024;2022-12-18T14:41:34;-0.60;48.90
24636;DHT22;12772;49.794;10.024;2022-12-18T14:45:41;-0.30;49.30
24636;DHT22;12772;49.794;10.024;2022-12-18T14:49:44;0.10;49.60
24636;DHT22;12772;49.794;10.024;2022-12-18T14:53:47;-0.40;49.40
24636;DHT22;12772;49.794;10.024;2022-12-18T14:57:52;0.00;50.30
24636;DHT22;12772;49.794;10.024;2022-12-18T15:02:03;0.10;50.50
24636;DHT22;12772;49.794;10.024;2022-12-18T15:06:17;0.00;50.50
24636;DHT22;12772;49.794;10.024;2022-12-18T15:10:26;-0.40;49.60
24636;DHT22;12772;49.794;10.024;2022-12-18T15:18:42;0.00;50.20
24636;DHT22;12772;49.794;10.024;2022-12-18T15:22:47;-0.20;50.70
24636;DHT22;12772;49.794;10.024;2022-12-18T15:26:49;-0.30;50.10
24636;DHT22;12772;49.794;10.024;2022-12-18T15:31:41;-0.10;49.90
24636;DHT22;12772;49.794;10.024;2022-12-18T15:35:24;-0.20;50.80
24636;DHT22;12772;49.794;10.024;2022-12-18T15:39:26;-0.10;50.00
24636;DHT22;12772;49.794;10.024;2022-12-18T15:43:29;-0.50;49.60
24636;DHT22;12772;49.794;10.024;2022-12-18T15:47:37;-0.10;50.30
24636;DHT22;12772;49.794;10.024;2022-12-18T15:51:39;0.00;49.80
24636;DHT22;12772;49.794;10.024;2022-12-18T15:55:41;0.00;49.70
24636;DHT22;12772;49.794;10.024;2022-12-18T16:00:01;-0.10;49.60
24636;DHT22;12772;49.794;10.024;2022-12-18T16:04:03;-0.20;49.40
24636;DHT22;12772;49.794;10.024;2022-12-18T16:08:05;-0.20;49.50
24636;DHT22;12772;49.794;10.024;2022-12-18T16:12:15;-0.20;49.50
24636;DHT22;12772;49.794;10.024;2022-12-18T16:16:18;-0.10;50.20
24636;DHT22;12772;49.794;10.024;2022-12-18T16:20:21;-0.20;49.50
24636;DHT22;12772;49.794;10.024;2022-12-18T16:24:26;-0.60;49.40
24636;DHT22;12772;49.794;10.024;2022-12-18T16:28:28;-0.30;50.20
24636;DHT22;12772;49.794;10.024;2022-12-18T16:32:30;-0.10;49.80
24636;DHT22;12772;49.794;10.024;2022-12-18T16:36:32;-0.50;49.50
24636;DHT22;12772;49.794;10.024;2022-12-18T16:40:34;0.00;50.00
24636;DHT22;12772;49.794;10.024;2022-12-18T16:44:56;-0.60;49.40
24636;DHT22;12772;49.794;10.024;2022-12-18T16:48:58;0.00;49.90
24636;DHT22;12772;49.794;10.024;2022-12-18T16:53:01;-0.20;50.20
24636;DHT22;12772;49.794;10.024;2022-12-18T16:57:03;0.00;49.90
24636;DHT22;12772;49.794;10.024;2022-12-18T17:01:09;-0.20;49.80
24636;DHT22;12772;49.794;10.024;2022-12-18T17:05:12;-0.60;49.10
24636;DHT22;12772;49.794;10.024;2022-12-18T17:09:15;-0.20;49.50
24636;DHT22;12772;49.794;10.024;2022-12-18T17:13:18;-0.20;49.50
24636;DHT22;12772;49.794;10.024;2022-12-18T17:17:23;-0.60;49.30
24636;DHT22;12772;49.794;10.024;2022-12-18T17:21:25;-0.20;49.60
24636;DHT22;12772;49.794;10.024;2022-12-18T17:25:27;-0.10;49.50
24636;DHT22;12772;49.794;10.024;2022-12-18T17:29:29;-0.20;49.60
24636;DHT22;12772;49.794;10.024;2022-12-18T17:33:31;-0.40;50.20
24636;DHT22;12772;49.794;10.024;2022-12-18T17:37:33;-0.20;49.90
24636;DHT22;12772;49.794;10.024;2022-12-18T17:41:35;-0.20;49.90
24636;DHT22;12772;49.794;10.024;2022-12-18T17:45:38;-0.30;50.00
24636;DHT22;12772;49.794;10.024;2022-12-18T17:49:41;-0.50;49.70
24636;DHT22;12772;49.794;10.024;2022-12-18T17:53:43;-0.40;49.80
24636;DHT22;12772;49.794;10.024;2022-12-18T17:57:45;-0.30;50.10
24636;DHT22;12772;49.794;10.024;2022-12-18T18:01:47;-0.60;49.60
24636;DHT22;12772;49.794;10.024;2022-12-18T18:05:56;-0.40;49.70
24636;DHT22;12772;49.794;10.024;2022-12-18T18:09:58;-0.20;49.80
24636;DHT22;12772;49.794;10.024;2022-12-18T18:14:02;-0.30;49.80
24636;DHT22;12772;49.794;10.024;2022-12-18T18:18:05;0.00;50.10
24636;DHT22;12772;49.794;10.024;2022-12-18T18:22:07;-0.10;49.80
24636;DHT22;12772;49.794;10.024;2022-12-18T18:26:09;0.00;49.80
24636;DHT22;12772;49.794;10.024;2022-12-18T18:30:11;-0.20;49.50
24636;DHT22;12772;49.794;10.024;2022-12-18T18:34:15;-0.20;49.60
24636;DHT22;12772;49.794;10.024;2022-12-18T18:38:17;-0.20;49.30
24636;DHT22;12772;49.794;10.024;2022-12-18T18:42:19;-0.60;48.90
24636;DHT22;12772;49.794;10.024;2022-12-18T18:46:22;-0.20;49.10
24636;DHT22;12772;49.794;10.024;2022-12-18T18:50:25;-0.50;48.90
24636;DHT22;12772;49.794;10.024;2022-12-18T18:54:27;-0.10;49.30
24636;DHT22;12772;49.794;10.024;2022-12-18T18:58:30;-0.10;49.20
24636;DHT22;12772;49.794;10.024;2022-12-18T19:02:33;-0.30;49.30
24636;DHT22;12772;49.794;10.024;2022-12-18T19:06:35;-0.30;49.20
24636;DHT22;12772;49.794;10.024;2022-12-18T19:10:39;-0.10;49.40
24636;DHT22;12772;49.794;10.024;2022-12-18T19:14:45;-0.20;49.30
24636;DHT22;12772;49.794;10.024;2022-12-18T19:18:47;-0.60;48.90
24636;DHT22;12772;49.794;10.024;2022-12-18T19:22:49;-0.60;49.10
24636;DHT22;12772;49.794;10.024;2022-12-18T19:26:51;-0.20;49.60
24636;DHT22;12772;49.794;10.024;2022-12-18T19:30:57;-0.40;49.50
24636;DHT22;12772;49.794;10.024;2022-12-18T19:35:00;-0.30;49.70
24636;DHT22;12772;49.794;10.024;2022-12-18T19:39:11;-1.10;49.00
24636;DHT22;12772;49.794;10.024;2022-12-18T19:43:14;-0.60;49.90
24636;DHT22;12772;49.794;10.024;2022-12-18T19:47:16;-0.50;50.00
24636;DHT22;12772;49.794;10.024;2022-12-18T19:51:26;-0.50;49.90
24636;DHT22;12772;49.794;10.024;2022-12-18T19:55:29;-0.90;49.80
24636;DHT22;12772;49.794;10.024;2022-12-18T19:59:31;-0.40;50.10
24636;DHT22;12772;49.794;10.024;2022-12-18T20:03:33;-0.40;50.20
24636;DHT22;12772;49.794;10.024;2022-12-18T20:07:35;-0.60;49.90
24636;DHT22;12772;49.794;10.024;2022-12-18T20:11:37;-0.50;50.10
24636;DHT22;12772;49.794;10.024;2022-12-18T20:15:39;-1.10;49.30
24636;DHT22;12772;49.794;10.024;2022-12-18T20:19:41;-0.60;50.00
24636;DHT22;12772;49.794;10.024;2022-12-18T20:23:44;-0.40;50.40
24636;DHT22;12772;49.794;10.024;2022-12-18T20:27:46;-1.20;49.60
24636;DHT22;12772;49.794;10.024;2022-12-18T20:31:49;-0.60;50.30
24636;DHT22;12772;49.794;10.024;2022-12-18T20:35:51;-0.60;50.50
24636;DHT22;12772;49.794;10.024;2022-12-18T20:39:53;-0.70;50.20
24636;DHT22;12772;49.794;10.024;2022-12-18T20:43:56;-0.70;50.40
24636;DHT22;12772;49.794;10.024;2022-12-18T20:47:58;-0.80;50.30
24636;DHT22;12772;49.794;10.024;2022-12-18T20:52:01;-0.80;50.50
24636;DHT22;12772;49.794;10.024;2022-12-18T20:56:08;-1.10;50.20
24636;DHT22;12772;49.794;10.024;2022-12-18T21:00:11;-0.90;50.50
24636;DHT22;12772;49.794;10.024;2022-12-18T21:04:13;-0.70;50.70
24636;DHT22;12772;49.794;10.024;2022-12-18T21:08:15;-0.80;50.80
24636;DHT22;12772;49.794;10.024;2022-12-18T21:12:17;-0.70;51.00
24636;DHT22;12772;49.794;10.024;2022-12-18T21:16:33;-0.80;51.10
24636;DHT22;12772;49.794;10.024;2022-12-18T21:20:35;-0.90;51.30
24636;DHT22;12772;49.794;10.024;2022-12-18T21:24:37;-0.80;51.60
24636;DHT22;12772;49.794;10.024;2022-12-18T21:28:39;-1.50;51.10
24636;DHT22;12772;49.794;10.024;2022-12-18T21:32:41;-0.70;51.80
24636;DHT22;12772;49.794;10.024;2022-12-18T21:36:43;-0.90;51.40
24636;DHT22;12772;49.794;10.024;2022-12-18T21:40:45;-1.00;51.10
24636;DHT22;12772;49.794;10.024;2022-12-18T21:44:47;-0.90;51.10
24636;DHT22;12772;49.794;10.024;2022-12-18T21:48:49;-1.30;50.60
24636;DHT22;12772;49.794;10.024;2022-12-18T21:52:51;-0.60;51.30
24636;DHT22;12772;49.794;10.024;2022-12-18T21:57:01;-0.50;51.40
24636;DHT22;12772;49.794;10.024;2022-12-18T22:01:04;-0.90;50.90
24636;DHT22;12772;49.794;10.024;2022-12-18T22:05:07;-0.50;51.40
24636;DHT22;12772;49.794;10.024;2022-12-18T22:09:12;-0.50;51.60
24636;DHT22;12772;49.794;10.024;2022-12-18T22:13:14;-0.70;50.90
24636;DHT22;12772;49.794;10.024;2022-12-18T22:17:16;-0.40;51.20
24636;DHT22;12772;49.794;10.024;2022-12-18T22:21:22;-0.60;50.90
24636;DHT22;12772;49.794;10.024;2022-12-18T22:25:24;-0.50;51.40
24636;DHT22;12772;49.794;10.024;2022-12-18T22:29:26;-0.50;51.10
24636;DHT22;12772;49.794;10.024;2022-12-18T22:33:54;-0.80;50.80
24636;DHT22;12772;49.794;10.024;2022-12-18T22:37:59;-1.20;50.50
24636;DHT22;12772;49.794;10.024;2022-12-18T22:42:01;-0.50;51.10
24636;DHT22;12772;49.794;10.024;2022-12-18T22:46:03;-0.40;51.20
24636;DHT22;12772;49.794;10.024;2022-12-18T22:50:05;-0.60;50.70
24636;DHT22;12772;49.794;10.024;2022-12-18T22:54:08;-0.40;50.70
24636;DHT22;12772;49.794;10.024;2022-12-18T22:58:10;-0.20;50.80
24636;DHT22;12772;49.794;10.024;2022-12-18T23:02:12;-0.30;50.40
24636;DHT22;12772;49.794;10.024;2022-12-18T23:06:15;-0.60;50.20
24636;DHT22;12772;49.794;10.024;2022-12-18T23:10:18;-0.40;50.60
24636;DHT22;12772;49.794;10.024;2022-12-18T23:14:20;-0.20;50.40
24636;DHT22;12772;49.794;10.024;2022-12-18T23:18:22;-0.80;49.80
24636;DHT22;12772;49.794;10.024;2022-12-18T23:22:24;-0.80;50.50
24636;DHT22;12772;49.794;10.024;2022-12-18T23:26:27;-0.30;50.10
24636;DHT22;12772;49.794;10.024;2022-12-18T23:30:30;-0.20;50.40
24636;DHT22;12772;49.794;10.024;2022-12-18T23:34:33;-0.70;50.20
24636;DHT22;12772;49.794;10.024;2022-12-18T23:38:35;-0.30;50.50
24636;DHT22;12772;49.794;10.024;2022-12-18T23:42:37;-0.50;50.30
24636;DHT22;12772;49.794;10.024;2022-12-18T23:46:39;-0.30;50.40
24636;DHT22;12772;49.794;10.024;2022-12-18T23:50:41;-0.20;50.30
24636;DHT22;12772;49.794;10.024;2022-12-18T23:54:44;-0.70;49.80
24636;DHT22;12772;49.794;10.024;2022-12-18T23:58:46;-0.40;50.70
